Time;durP1;ratioP1;P1;durP2;ratioP2;P2;SDS_P1;SDS_P2;PMS_P1;PMS_P2;Temp;Humidity;BMP_temperature;BMP_pressure;BME280_temperature;BME280_humidity;BME280_pressure;Samples;Min_cycle;Max_cycle;Signal;HPM_P1;HPM_P2
2021/12/14 00:01:25;;;;;;;6.87;4.63;;;11.70;94.50;;;;;;5042627;28;20029;-78
2021/12/14 00:03:54;;;;;;;5.03;3.60;;;11.70;94.20;;;;;;5042317;28;20036;-78
2021/12/14 00:06:22;;;;;;;4.03;2.65;;;11.70;94.20;;;;;;5054904;28;20064;-78
2021/12/14 00:08:56;;;;;;;6.03;3.53;;;11.70;94.20;;;;;;5042853;28;20029;-78
2021/12/14 00:11:31;;;;;;;;;;;11.60;94.20;;;;;;5038704;28;20034;-78
2021/12/14 00:14:14;;;;;;;8.60;4.68;;;11.60;94.20;;;;;;5040149;28;19962;-78
2021/12/14 00:16:42;;;;;;;12.15;6.07;;;11.60;94.20;;;;;;5054395;28;20063;-78
2021/12/14 00:19:07;;;;;;;4.25;3.40;;;11.60;94.30;;;;;;5055236;28;20036;-78
2021/12/14 00:21:34;;;;;;;9.20;5.38;;;11.60;94.30;;;;;;5039706;28;20163;-78
2021/12/14 00:24:09;;;;;;;9.18;3.22;;;11.50;94.30;;;;;;5034289;28;20036;-78
2021/12/14 00:26:51;;;;;;;5.18;3.45;;;11.50;94.30;;;;;;5047948;28;20116;-78
2021/12/14 00:29:26;;;;;;;9.20;4.93;;;11.60;94.40;;;;;;5047770;28;20029;-77
2021/12/14 00:31:53;;;;;;;11.98;4.45;;;11.50;94.30;;;;;;5033032;28;20041;-77
2021/12/14 00:34:36;;;;;;;4.07;2.67;;;11.50;94.30;;;;;;5049049;28;20590;-77
2021/12/14 00:37:14;;;;;;;3.03;1.95;;;11.50;94.20;;;;;;5053058;28;20026;-77
2021/12/14 00:39:40;;;;;;;11.45;5.32;;;11.50;94.30;;;;;;5053115;28;20040;-77
2021/12/14 00:42:09;;;;;;;4.88;3.08;;;11.50;94.30;;;;;;5044764;28;20052;-78
2021/12/14 00:44:36;;;;;;;5.25;2.65;;;11.50;94.30;;;;;;5040572;28;20029;-78
2021/12/14 00:47:03;;;;;;;4.30;2.45;;;11.50;94.20;;;;;;5054378;28;20490;-78
2021/12/14 00:49:30;;;;;;;4.82;2.90;;;11.50;94.20;;;;;;5052946;28;20479;-77
2021/12/14 00:51:56;;;;;;;6.90;4.60;;;11.50;94.20;;;;;;5041180;28;20503;-78
2021/12/14 00:54:23;;;;;;;5.20;3.47;;;11.50;94.10;;;;;;5054286;28;20529;-77
2021/12/14 00:56:50;;;;;;;8.70;4.18;;;11.50;94.20;;;;;;5051122;28;20028;-78
2021/12/14 00:59:18;;;;;;;8.27;4.20;;;11.50;94.10;;;;;;5042635;28;20025;-77
2021/12/14 01:01:57;;;;;;;7.38;4.70;;;11.50;94.10;;;;;;5036671;28;20035;-78
2021/12/14 01:04:33;;;;;;;7.13;3.63;;;11.50;94.10;;;;;;5033039;28;20127;-78
2021/12/14 01:07:00;;;;;;;10.25;5.88;;;11.50;94.10;;;;;;5046453;28;20064;-77
2021/12/14 01:09:31;;;;;;;15.73;5.28;;;11.50;94.10;;;;;;5045609;28;20040;-78
2021/12/14 01:12:05;;;;;;;5.50;3.22;;;11.50;94.00;;;;;;5040020;28;20082;-77
2021/12/14 01:14:45;;;;;;;10.13;4.63;;;11.50;94.00;;;;;;5053675;28;20037;-77
2021/12/14 01:17:41;;;;;;;8.68;5.20;;;11.50;94.00;;;;;;5048380;28;20029;-77
2021/12/14 01:20:10;;;;;;;6.45;4.20;;;11.40;94.00;;;;;;5035545;28;20025;-78
2021/12/14 01:25:11;;;;;;;7.88;4.43;;;11.40;94.00;;;;;;5036843;28;20025;-78
2021/12/14 01:27:57;;;;;;;12.30;5.07;;;11.40;94.00;;;;;;5031848;28;20021;-77
2021/12/14 01:30:41;;;;;;;7.20;3.72;;;11.40;94.00;;;;;;5040259;28;20029;-78
2021/12/14 01:33:11;;;;;;;4.72;2.90;;;11.40;94.00;;;;;;5052736;28;20811;-77
2021/12/14 01:35:40;;;;;;;17.75;6.88;;;11.40;93.90;;;;;;5052357;28;20055;-78
2021/12/14 01:40:58;;;;;;;7.97;4.30;;;11.40;94.00;;;;;;5031312;28;20026;-78
2021/12/14 01:43:43;;;;;;;8.35;4.25;;;11.40;93.90;;;;;;5044902;28;20041;-77
2021/12/14 01:46:41;;;;;;;5.30;2.47;;;11.40;94.00;;;;;;5034798;28;20481;-78
2021/12/14 01:49:35;;;;;;;9.10;4.30;;;11.40;94.00;;;;;;5039453;28;20035;-77
2021/12/14 01:52:31;;;;;;;6.57;3.97;;;11.40;93.90;;;;;;5036121;28;20053;-77
2021/12/14 01:55:19;;;;;;;5.80;3.15;;;11.40;93.90;;;;;;5031082;28;20032;-78
2021/12/14 01:57:47;;;;;;;6.97;3.88;;;11.40;94.20;;;;;;5039363;28;20032;-77
2021/12/14 02:00:34;;;;;;;10.43;5.45;;;11.40;93.90;;;;;;5039813;28;20122;-77
2021/12/14 02:03:03;;;;;;;12.48;6.45;;;11.30;93.80;;;;;;5039027;28;20037;-77
2021/12/14 02:05:41;;;;;;;6.25;3.03;;;11.40;93.90;;;;;;5032474;28;20033;-78
2021/12/14 02:08:24;;;;;;;5.88;3.78;;;11.40;93.90;;;;;;5041095;28;20028;-77
2021/12/14 02:10:53;;;;;;;13.18;6.10;;;11.40;93.90;;;;;;5040323;28;20037;-78
2021/12/14 02:13:31;;;;;;;6.07;4.25;;;11.30;93.80;;;;;;5031942;28;20131;-78
2021/12/14 02:16:00;;;;;;;12.13;5.80;;;11.30;93.80;;;;;;5051030;28;20021;-77
2021/12/14 02:18:29;;;;;;;8.70;4.93;;;11.30;93.80;;;;;;5035954;28;20033;-77
2021/12/14 02:21:03;;;;;;;11.05;4.93;;;11.20;93.90;;;;;;5041686;28;20083;-77
2021/12/14 02:23:30;;;;;;;9.77;4.88;;;11.20;94.00;;;;;;5034102;28;20026;-77
2021/12/14 02:25:59;;;;;;;8.48;4.68;;;11.20;94.00;;;;;;5043093;28;20104;-78
2021/12/14 02:28:25;;;;;;;12.25;5.30;;;11.30;94.00;;;;;;5046885;28;20024;-77
2021/12/14 02:30:53;;;;;;;10.15;5.32;;;11.20;94.10;;;;;;5030727;28;20033;-77
2021/12/14 02:33:23;;;;;;;13.90;6.93;;;11.20;94.10;;;;;;5044137;28;20059;-77
2021/12/14 02:35:50;;;;;;;15.07;8.23;;;11.30;94.10;;;;;;5032747;28;20025;-78
2021/12/14 02:38:17;;;;;;;13.30;5.82;;;11.20;94.10;;;;;;5052016;28;20028;-78
2021/12/14 02:40:53;;;;;;;15.13;7.95;;;11.20;94.10;;;;;;5037329;28;20493;-78
2021/12/14 02:43:25;;;;;;;17.25;5.30;;;11.20;94.10;;;;;;5035350;28;20033;-78
2021/12/14 02:45:54;;;;;;;9.93;6.13;;;11.20;94.10;;;;;;5049635;28;20031;-79
2021/12/14 02:48:24;;;;;;;16.52;7.22;;;11.10;94.10;;;;;;5051348;28;20021;-77
2021/12/14 02:50:50;;;;;;;10.82;5.88;;;11.10;94.20;;;;;;5036653;28;20061;-78
2021/12/14 02:53:15;;;;;;;7.95;4.40;;;11.20;94.10;;;;;;5052336;28;20068;-78
2021/12/14 02:55:41;;;;;;;12.02;6.72;;;11.10;94.20;;;;;;5057947;28;20059;-78
2021/12/14 02:58:09;;;;;;;10.13;5.03;;;11.10;94.20;;;;;;5046436;28;20436;-78
2021/12/14 03:00:47;;;;;;;13.90;5.72;;;11.10;94.20;;;;;;5037440;28;20041;-78
2021/12/14 03:03:14;;;;;;;9.05;5.50;;;11.10;94.20;;;;;;5042023;28;20025;-77
2021/12/14 03:05:43;;;;;;;12.82;7.47;;;11.20;94.10;;;;;;5042949;28;20029;-77
2021/12/14 03:08:20;;;;;;;16.63;7.07;;;11.20;94.20;;;;;;5033362;28;20029;-78
2021/12/14 03:11:10;;;;;;;9.77;5.60;;;11.10;94.20;;;;;;5033032;28;20091;-78
2021/12/14 03:13:38;;;;;;;12.93;6.85;;;11.10;94.10;;;;;;5040956;28;20030;-78
2021/12/14 03:16:08;;;;;;;11.63;7.10;;;11.10;94.10;;;;;;5038903;28;20032;-78
2021/12/14 03:18:38;;;;;;;14.38;6.35;;;11.20;94.20;;;;;;5049776;28;20546;-78
2021/12/14 03:21:13;;;;;;;9.68;5.95;;;11.10;94.20;;;;;;5040227;28;20030;-77
2021/12/14 03:23:52;;;;;;;11.35;5.65;;;11.10;94.20;;;;;;5037533;28;20119;-78
2021/12/14 03:26:21;;;;;;;10.00;5.35;;;11.10;94.20;;;;;;5051347;28;20025;-77
2021/12/14 03:28:50;;;;;;;13.38;8.35;;;11.10;94.20;;;;;;5042685;28;20044;-78
2021/12/14 03:31:35;;;;;;;16.05;8.23;;;11.00;94.20;;;;;;5031373;28;20369;-77
2021/12/14 03:34:24;;;;;;;7.85;4.88;;;11.10;94.30;;;;;;5042147;28;20033;-77
2021/12/14 03:37:07;;;;;;;14.68;8.20;;;11.10;94.30;;;;;;5029329;28;20065;-77
2021/12/14 03:39:37;;;;;;;;;;;11.10;94.30;;;;;;5031241;28;20021;-77
2021/12/14 03:42:10;;;;;;;17.65;9.82;;;11.10;94.30;;;;;;5041019;28;19971;-77
2021/12/14 03:44:43;;;;;;;10.90;5.55;;;11.10;94.40;;;;;;5040857;28;20053;-78
2021/12/14 03:47:35;;;;;;;19.33;9.35;;;11.00;94.30;;;;;;5033101;28;20124;-77
2021/12/14 03:50:07;;;;;;;14.40;7.32;;;11.00;94.40;;;;;;5034507;28;20040;-84
2021/12/14 03:52:36;;;;;;;8.45;5.07;;;11.00;94.40;;;;;;5042491;28;20045;-81
2021/12/14 03:55:09;;;;;;;16.40;8.43;;;11.00;94.40;;;;;;5035325;28;20018;-72
2021/12/14 03:57:36;;;;;;;17.60;5.57;;;11.00;94.40;;;;;;5034115;28;20033;-76
2021/12/14 04:00:13;;;;;;;18.50;9.88;;;11.00;94.40;;;;;;5034815;28;20021;-77
2021/12/14 04:02:47;;;;;;;13.32;6.70;;;11.00;94.40;;;;;;5038593;28;20030;-77
2021/12/14 04:05:16;;;;;;;16.23;8.63;;;11.00;94.40;;;;;;5033289;28;20028;-77
2021/12/14 04:07:44;;;;;;;18.40;9.75;;;11.00;94.40;;;;;;5034810;28;20033;-77
2021/12/14 04:10:21;;;;;;;13.32;6.95;;;11.00;94.40;;;;;;5040969;28;20545;-77
2021/12/14 04:12:48;;;;;;;12.10;6.97;;;11.00;94.40;;;;;;5053791;28;20047;-76
2021/12/14 04:15:14;;;;;;;13.70;7.82;;;11.00;94.40;;;;;;5053246;28;20025;-77
2021/12/14 04:17:40;;;;;;;15.13;7.72;;;11.00;94.40;;;;;;5053503;28;20029;-77
2021/12/14 04:20:25;;;;;;;13.65;6.88;;;11.00;94.50;;;;;;5044528;28;20079;-77
2021/12/14 04:22:52;;;;;;;14.15;8.18;;;11.00;94.40;;;;;;5038316;28;20025;-77
2021/12/14 04:25:23;;;;;;;12.88;7.15;;;11.10;94.40;;;;;;5053513;28;20029;-77
2021/12/14 04:27:50;;;;;;;14.75;7.80;;;11.00;94.50;;;;;;5034413;28;20068;-77
2021/12/14 04:30:19;;;;;;;16.88;8.65;;;11.00;94.50;;;;;;5033505;28;20484;-77
2021/12/14 04:32:50;;;;;;;13.77;7.93;;;11.10;94.50;;;;;;5047090;28;20385;-77
2021/12/14 04:35:18;;;;;;;16.02;6.93;;;11.00;94.50;;;;;;5036890;28;20068;-77
2021/12/14 04:37:55;;;;;;;15.68;7.57;;;11.00;94.50;;;;;;5031844;28;20029;-77
2021/12/14 04:54:20;;;;;;;13.02;5.18;;;11.00;94.60;;;;;;5035376;28;20042;-77
2021/12/14 04:56:46;;;;;;;11.65;5.55;;;11.00;94.60;;;;;;5032152;28;20030;-77
2021/12/14 04:59:27;;;;;;;19.38;9.95;;;11.00;94.70;;;;;;5038076;28;20441;-77
2021/12/14 05:01:59;;;;;;;13.65;7.43;;;11.00;94.70;;;;;;5032991;28;20372;-77
2021/12/14 05:04:44;;;;;;;11.82;6.40;;;11.00;94.60;;;;;;5049693;28;20118;-77
2021/12/14 05:09:54;;;;;;;15.27;7.47;;;11.00;94.60;;;;;;5048572;28;20521;-77
2021/12/14 05:12:28;;;;;;;13.55;6.63;;;11.10;94.60;;;;;;5043329;28;20465;-77
2021/12/14 05:15:09;;;;;;;10.77;5.95;;;11.00;94.60;;;;;;5032788;28;20524;-77
2021/12/14 05:17:40;;;;;;;12.40;7.00;;;11.00;94.60;;;;;;5032822;28;20760;-77
2021/12/14 05:20:09;;;;;;;18.40;8.55;;;11.00;94.70;;;;;;5052111;28;20024;-77
2021/12/14 05:22:37;;;;;;;15.88;9.15;;;11.00;94.70;;;;;;5052276;28;20054;-77
2021/12/14 05:25:09;;;;;;;11.57;5.68;;;11.00;94.70;;;;;;5043922;28;20029;-78
2021/12/14 05:27:39;;;;;;;13.88;6.10;;;11.00;94.70;;;;;;5035042;28;20037;-77
2021/12/14 05:30:08;;;;;;;17.25;8.88;;;11.00;94.70;;;;;;5053831;28;20439;-77
2021/12/14 05:32:42;;;;;;;10.52;5.85;;;11.00;94.70;;;;;;5033488;28;20029;-77
2021/12/14 05:35:11;;;;;;;10.10;4.45;;;11.00;94.70;;;;;;5044251;28;20029;-77
2021/12/14 05:37:46;;;;;;;18.27;8.15;;;11.00;94.70;;;;;;5033673;28;20033;-77
2021/12/14 05:40:36;;;;;;;19.45;9.40;;;11.00;94.70;;;;;;5044591;28;20025;-77
2021/12/14 05:43:12;;;;;;;16.17;8.00;;;11.00;94.70;;;;;;5033337;28;20056;-78
2021/12/14 05:46:03;;;;;;;11.10;5.53;;;11.00;94.70;;;;;;5053797;28;20476;-78
2021/12/14 05:48:40;;;;;;;15.57;6.18;;;11.00;94.60;;;;;;5032178;28;20084;-77
2021/12/14 05:51:08;;;;;;;15.52;7.60;;;11.00;94.60;;;;;;5040359;28;20044;-81
2021/12/14 05:53:42;;;;;;;14.00;8.50;;;11.00;94.60;;;;;;5042671;28;20036;-77
2021/12/14 05:56:13;;;;;;;19.65;9.45;;;11.00;94.70;;;;;;5032839;28;20075;-80
2021/12/14 05:58:39;;;;;;;17.02;8.27;;;11.00;94.70;;;;;;5036266;28;20063;-77
2021/12/14 06:01:12;;;;;;;16.67;9.38;;;11.00;94.80;;;;;;5029596;28;20064;-77
2021/12/14 06:03:46;;;;;;;15.00;7.80;;;10.90;94.80;;;;;;5030260;28;20072;-76
2021/12/14 06:06:19;;;;;;;16.73;7.57;;;10.90;94.90;;;;;;5031034;28;20037;-79
2021/12/14 06:08:46;;;;;;;12.68;6.55;;;10.90;94.90;;;;;;5030658;28;20124;-75
2021/12/14 06:11:29;;;;;;;21.65;10.63;;;11.00;95.00;;;;;;5031696;28;20092;-82
2021/12/14 06:13:57;;;;;;;20.52;9.27;;;10.90;95.00;;;;;;5034002;28;20044;-78
2021/12/14 06:16:28;;;;;;;20.30;10.48;;;10.90;95.00;;;;;;5030897;28;20041;-76
2021/12/14 06:19:17;;;;;;;20.40;9.88;;;10.90;95.00;;;;;;5039182;28;20025;-77
2021/12/14 06:21:46;;;;;;;25.02;11.40;;;10.90;95.10;;;;;;5034275;28;20116;-78
2021/12/14 06:24:12;;;;;;;17.02;9.50;;;10.90;95.10;;;;;;5034043;28;20029;-74
2021/12/14 06:26:49;;;;;;;23.60;10.45;;;10.90;95.10;;;;;;5038222;28;20075;-76
2021/12/14 06:29:20;;;;;;;16.50;9.90;;;10.90;95.10;;;;;;5038925;28;20443;-79
2021/12/14 06:31:46;;;;;;;19.63;10.65;;;10.90;95.10;;;;;;5038432;28;20033;-78
2021/12/14 06:34:14;;;;;;;17.80;8.73;;;10.90;95.10;;;;;;5037141;28;20033;-84
2021/12/14 06:37:31;;;;;;;15.95;7.95;;;10.90;95.20;;;;;;5030078;28;20021;-78
2021/12/14 06:40:16;;;;;;;18.33;9.57;;;10.90;95.20;;;;;;5045164;28;20052;-78
2021/12/14 06:43:04;;;;;;;17.85;10.52;;;10.90;95.20;;;;;;5038486;28;20055;-77
2021/12/14 06:45:32;;;;;;;17.38;7.40;;;10.90;95.20;;;;;;5033767;28;20026;-76
2021/12/14 06:48:09;;;;;;;14.98;6.68;;;10.90;95.20;;;;;;5040324;28;20033;-78
2021/12/14 06:51:15;;;;;;;14.40;7.28;;;10.90;95.30;;;;;;5038032;28;20056;-75
2021/12/14 06:53:56;;;;;;;14.25;7.72;;;10.90;95.30;;;;;;5030868;28;20041;-75
2021/12/14 06:56:32;;;;;;;16.05;8.73;;;10.90;95.20;;;;;;5043113;28;20065;-75
2021/12/14 06:59:20;;;;;;;21.50;10.40;;;10.90;95.20;;;;;;5047233;28;20078;-76
2021/12/14 07:02:09;;;;;;;21.55;9.63;;;10.90;95.20;;;;;;5033867;28;20084;-75
2021/12/14 07:05:07;;;;;;;24.55;10.93;;;10.90;95.20;;;;;;5038740;28;20040;-75
2021/12/14 07:07:37;;;;;;;20.70;7.07;;;10.80;95.10;;;;;;5032463;28;20033;-75
2021/12/14 07:10:11;;;;;;;18.15;9.82;;;10.90;95.20;;;;;;5031403;28;20034;-75
2021/12/14 07:12:38;;;;;;;16.42;8.05;;;10.90;95.50;;;;;;5044454;28;20048;-75
2021/12/14 07:15:24;;;;;;;22.98;12.13;;;10.90;95.30;;;;;;5045372;28;20025;-75
2021/12/14 07:18:00;;;;;;;22.27;12.70;;;10.80;95.30;;;;;;5041556;28;20108;-75
2021/12/14 07:20:51;;;;;;;20.48;9.93;;;10.80;95.30;;;;;;5048248;28;20116;-76
2021/12/14 07:23:35;;;;;;;13.90;9.13;;;10.90;95.40;;;;;;5048987;28;20029;-77
2021/12/14 07:26:06;;;;;;;23.15;10.98;;;10.80;95.40;;;;;;5047294;28;20029;-77
2021/12/14 07:28:37;;;;;;;16.23;8.50;;;10.80;95.40;;;;;;5056002;28;20048;-76
2021/12/14 07:31:21;;;;;;;18.27;9.30;;;10.80;95.40;;;;;;5056253;28;20036;-76
2021/12/14 07:33:56;;;;;;;20.20;9.80;;;10.80;95.40;;;;;;5044564;28;20047;-75
2021/12/14 07:36:28;;;;;;;19.52;9.15;;;10.80;95.40;;;;;;5042642;28;20472;-78
2021/12/14 07:39:09;;;;;;;21.60;12.30;;;10.80;95.50;;;;;;5055550;28;20033;-76
2021/12/14 07:41:47;;;;;;;23.35;12.43;;;10.80;95.40;;;;;;5055950;28;20108;-77
2021/12/14 07:44:38;;;;;;;22.08;11.65;;;10.80;95.40;;;;;;5054354;28;20040;-76
2021/12/14 07:47:11;;;;;;;20.10;10.30;;;10.80;95.50;;;;;;5042321;28;20103;-76
2021/12/14 07:49:42;;;;;;;;;;;10.80;95.50;;;;;;5036213;28;20061;-75
2021/12/14 07:52:07;;;;;;;13.98;7.45;;;10.80;95.50;;;;;;5046895;28;19982;-76
2021/12/14 07:54:46;;;;;;;20.65;10.00;;;10.70;95.50;;;;;;5034904;28;20033;-76
2021/12/14 07:57:14;;;;;;;23.05;11.25;;;10.70;95.60;;;;;;5053779;28;20033;-76
2021/12/14 07:59:52;;;;;;;24.20;13.52;;;10.80;95.70;;;;;;5040706;28;20057;-77
2021/12/14 08:02:31;;;;;;;18.98;9.38;;;10.80;95.70;;;;;;5038577;28;20045;-78
2021/12/14 08:04:59;;;;;;;17.95;9.02;;;10.80;95.70;;;;;;5052480;28;20430;-77
2021/12/14 08:07:34;;;;;;;12.20;6.30;;;10.80;95.80;;;;;;5055037;28;20028;-79
2021/12/14 08:10:07;;;;;;;11.63;6.38;;;10.80;95.80;;;;;;5042262;28;20048;-79
2021/12/14 08:12:38;;;;;;;15.00;7.95;;;10.80;95.80;;;;;;5041574;28;20481;-78
2021/12/14 08:15:22;;;;;;;16.75;9.13;;;10.80;95.70;;;;;;5042777;28;20108;-79
2021/12/14 08:18:31;;;;;;;16.38;7.82;;;10.80;95.70;;;;;;5051431;28;20037;-82
2021/12/14 08:21:06;;;;;;;19.02;10.88;;;10.80;95.80;;;;;;5050881;28;20110;-81
2021/12/14 08:23:32;;;;;;;24.25;11.50;;;10.80;95.70;;;;;;5043719;28;20061;-73
2021/12/14 08:26:22;;;;;;;20.45;10.02;;;10.80;95.80;;;;;;5048221;28;20065;-79
2021/12/14 08:29:28;;;;;;;20.23;9.35;;;10.80;95.80;;;;;;5049925;28;20035;-80
2021/12/14 08:32:02;;;;;;;15.85;7.85;;;10.80;95.80;;;;;;5032182;28;20030;-76
2021/12/14 08:34:32;;;;;;;19.38;10.48;;;10.80;95.80;;;;;;5032912;28;20040;-78
2021/12/14 08:37:07;;;;;;;20.80;8.45;;;10.90;95.80;;;;;;5044411;28;20110;-79
2021/12/14 08:39:49;;;;;;;22.95;12.38;;;10.90;95.70;;;;;;5055090;28;20091;-79
2021/12/14 08:42:16;;;;;;;17.20;8.98;;;10.90;95.70;;;;;;5053750;28;20036;-79
2021/12/14 08:44:51;;;;;;;20.05;9.68;;;10.90;95.70;;;;;;5034601;28;20040;-76
2021/12/14 08:47:27;;;;;;;21.92;10.15;;;10.90;95.70;;;;;;5035073;28;20388;-75
2021/12/14 08:49:54;;;;;;;22.98;9.50;;;10.90;95.70;;;;;;5033955;28;20045;-78
2021/12/14 08:52:21;;;;;;;19.35;10.13;;;10.90;95.70;;;;;;5049801;28;20033;-75
2021/12/14 08:54:48;;;;;;;17.48;8.73;;;11.00;95.70;;;;;;5054200;28;20112;-75
2021/12/14 08:57:18;;;;;;;14.45;7.22;;;10.90;95.70;;;;;;5039725;28;20025;-75
2021/12/14 08:59:48;;;;;;;25.80;12.60;;;10.90;95.70;;;;;;5042169;28;20104;-76
2021/12/14 09:02:16;;;;;;;24.10;10.90;;;10.90;95.70;;;;;;5052492;28;20039;-75
2021/12/14 09:04:52;;;;;;;13.80;7.78;;;10.90;95.70;;;;;;5040747;28;20048;-75
2021/12/14 09:07:23;;;;;;;19.48;8.73;;;11.00;95.70;;;;;;5042154;28;20065;-75
2021/12/14 09:09:48;;;;;;;9.32;5.28;;;11.00;95.70;;;;;;5052854;28;20050;-75
2021/12/14 09:12:19;;;;;;;15.15;8.88;;;11.00;95.90;;;;;;5033723;28;20088;-75
2021/12/14 09:14:48;;;;;;;9.80;6.43;;;11.00;95.70;;;;;;5049382;28;20108;-75
2021/12/14 09:17:16;;;;;;;16.05;7.97;;;11.00;95.70;;;;;;5053512;28;20037;-75
2021/12/14 09:19:48;;;;;;;14.90;7.68;;;11.00;95.70;;;;;;5049651;28;20026;-75
2021/12/14 09:22:31;;;;;;;9.65;5.15;;;11.00;95.70;;;;;;5045748;28;20039;-75
2021/12/14 09:24:58;;;;;;;12.02;6.32;;;11.00;95.90;;;;;;5053616;28;20024;-75
2021/12/14 09:27:28;;;;;;;20.92;8.07;;;11.00;95.60;;;;;;5051966;28;20060;-75
2021/12/14 09:29:55;;;;;;;21.85;10.48;;;11.10;95.60;;;;;;5042917;28;20035;-75
2021/12/14 09:32:27;;;;;;;20.25;8.35;;;11.10;95.60;;;;;;5039357;28;20042;-75
2021/12/14 09:34:54;;;;;;;18.83;8.05;;;11.10;95.60;;;;;;5053883;28;20028;-75
2021/12/14 09:37:21;;;;;;;10.38;5.28;;;11.10;95.60;;;;;;5036437;28;20033;-75
2021/12/14 09:39:50;;;;;;;13.68;5.93;;;11.10;95.60;;;;;;5044124;28;20036;-75
2021/12/14 09:42:32;;;;;;;21.00;10.65;;;11.10;95.60;;;;;;5034720;28;20029;-76
2021/12/14 09:45:06;;;;;;;8.63;4.07;;;11.10;95.60;;;;;;5033474;28;20025;-75
2021/12/14 09:47:32;;;;;;;20.35;8.57;;;11.10;95.50;;;;;;5050791;28;20036;-75
2021/12/14 09:50:09;;;;;;;15.20;8.55;;;11.20;95.50;;;;;;5042194;28;20056;-75
2021/12/14 09:52:38;;;;;;;16.58;6.07;;;11.20;95.50;;;;;;5051918;28;20048;-76
2021/12/14 09:55:14;;;;;;;22.75;7.35;;;11.20;95.70;;;;;;5052731;28;20123;-76
2021/12/14 09:57:46;;;;;;;17.48;7.78;;;11.20;95.50;;;;;;5041858;28;20116;-75
2021/12/14 10:00:33;;;;;;;20.00;9.35;;;11.20;95.50;;;;;;5049546;28;20017;-76
2021/12/14 10:03:02;;;;;;;15.40;4.47;;;11.20;95.50;;;;;;5033580;28;20060;-75
2021/12/14 10:05:38;;;;;;;17.55;8.43;;;11.30;95.50;;;;;;5039958;28;20476;-75
2021/12/14 10:08:14;;;;;;;19.83;7.18;;;11.30;95.50;;;;;;5037253;28;20041;-75
2021/12/14 10:10:43;;;;;;;10.48;5.22;;;11.30;95.50;;;;;;5033205;28;20065;-75
2021/12/14 10:13:10;;;;;;;23.42;8.55;;;11.30;95.50;;;;;;5036990;28;20132;-75
2021/12/14 10:15:38;;;;;;;9.18;5.25;;;11.30;95.50;;;;;;5041217;28;20110;-76
2021/12/14 10:18:10;;;;;;;8.55;4.55;;;11.30;95.50;;;;;;5046391;28;20366;-75
2021/12/14 10:20:48;;;;;;;21.77;8.55;;;11.30;95.70;;;;;;5031919;28;20483;-80
2021/12/14 10:23:15;;;;;;;11.65;6.53;;;11.30;95.50;;;;;;5032464;28;20044;-79
2021/12/14 10:25:41;;;;;;;13.90;7.30;;;11.30;95.40;;;;;;5032599;28;20099;-79
2021/12/14 10:28:08;;;;;;;16.05;8.00;;;11.30;95.50;;;;;;5032180;28;20029;-79
2021/12/14 10:30:38;;;;;;;17.63;7.68;;;11.30;95.50;;;;;;5037580;28;20096;-79
2021/12/14 10:33:04;;;;;;;10.93;6.43;;;11.30;95.50;;;;;;5037727;28;20378;-79
2021/12/14 10:35:41;;;;;;;19.08;8.88;;;11.40;95.50;;;;;;5034642;28;20057;-80
2021/12/14 10:38:20;;;;;;;16.67;7.28;;;11.30;95.50;;;;;;5034841;28;20029;-80
2021/12/14 10:43:37;;;;;;;16.70;6.03;;;11.40;95.50;;;;;;5050627;28;20024;-80
2021/12/14 10:46:14;;;;;;;12.60;6.68;;;11.40;95.50;;;;;;5038863;28;20551;-80
2021/12/14 10:48:44;;;;;;;9.50;5.45;;;11.40;95.50;;;;;;5051271;28;20040;-79
2021/12/14 10:51:14;;;;;;;12.07;6.30;;;11.40;95.50;;;;;;5044857;28;20477;-81
2021/12/14 10:53:42;;;;;;;14.70;6.95;;;11.40;95.50;;;;;;5039723;28;20049;-80
2021/12/14 10:56:26;;;;;;;19.02;7.80;;;11.40;95.50;;;;;;5049550;28;20556;-80
2021/12/14 10:58:54;;;;;;;21.00;9.30;;;11.40;95.60;;;;;;5052019;28;20076;-80
2021/12/14 11:01:26;;;;;;;21.80;10.85;;;11.40;95.60;;;;;;5058751;28;20107;-80
2021/12/14 11:03:56;;;;;;;15.20;8.27;;;11.30;95.70;;;;;;5045477;28;20469;-79
2021/12/14 11:06:28;;;;;;;14.77;7.05;;;11.30;95.70;;;;;;5047967;28;20045;-77
2021/12/14 11:11:46;;;;;;;23.55;11.35;;;11.30;95.80;;;;;;5043635;28;20033;-78
2021/12/14 11:14:34;;;;;;;25.50;13.50;;;11.30;95.80;;;;;;5041363;28;20114;-78
2021/12/14 11:19:59;;;;;;;10.93;5.63;;;11.30;95.90;;;;;;5044459;28;20118;-77
2021/12/14 11:22:50;;;;;;;18.48;8.68;;;11.30;96.00;;;;;;5039671;28;20084;-76
2021/12/14 11:25:21;;;;;;;17.00;9.07;;;11.30;96.10;;;;;;5038882;28;20480;-77
2021/12/14 11:27:53;;;;;;;15.90;7.95;;;11.30;96.00;;;;;;5039695;28;20017;-77
2021/12/14 11:30:32;;;;;;;8.43;4.25;;;11.30;96.10;;;;;;5039122;28;20106;-78
2021/12/14 11:33:08;;;;;;;14.20;7.25;;;11.40;96.40;;;;;;5049533;28;20045;-77
2021/12/14 11:35:40;;;;;;;20.65;9.07;;;11.40;96.10;;;;;;5045526;28;20021;-78
2021/12/14 11:38:48;;;;;;;15.48;7.93;;;11.40;96.10;;;;;;5058206;28;20041;-78
2021/12/14 11:41:25;;;;;;;15.75;8.38;;;11.30;96.10;;;;;;5030151;28;20476;-77
2021/12/14 11:44:12;;;;;;;16.38;7.63;;;11.40;96.10;;;;;;5052509;28;20037;-79
2021/12/14 11:46:56;;;;;;;10.65;5.43;;;11.40;96.10;;;;;;5048260;28;20112;-78
2021/12/14 11:49:24;;;;;;;24.20;8.95;;;11.40;96.10;;;;;;5058306;28;20024;-78
2021/12/14 11:51:52;;;;;;;8.50;5.10;;;11.30;96.20;;;;;;5055976;28;20480;-77
2021/12/14 11:54:19;;;;;;;24.23;9.45;;;11.40;96.20;;;;;;5057151;28;20041;-78
2021/12/14 11:56:46;;;;;;;21.48;9.65;;;11.40;96.20;;;;;;5046560;28;20029;-78
2021/12/14 11:59:12;;;;;;;17.67;7.65;;;11.40;96.20;;;;;;5056902;28;20025;-78
2021/12/14 12:01:54;;;;;;;12.98;7.45;;;11.40;96.20;;;;;;5042882;28;20036;-77
2021/12/14 12:04:32;;;;;;;7.22;4.45;;;11.40;96.20;;;;;;5058627;28;20404;-78
2021/12/14 12:09:37;;;;;;;17.20;8.48;;;11.40;96.20;;;;;;5043388;28;20044;-78
2021/12/14 12:12:06;;;;;;;18.02;7.95;;;11.50;96.20;;;;;;5035713;28;20030;-77
2021/12/14 12:14:47;;;;;;;17.63;6.68;;;11.50;96.20;;;;;;5037505;28;20037;-77
2021/12/14 12:17:30;;;;;;;15.48;8.13;;;11.40;96.30;;;;;;5040172;28;20112;-77
2021/12/14 12:20:28;;;;;;;21.83;7.03;;;11.50;96.30;;;;;;5034997;28;20025;-77
2021/12/14 12:23:12;;;;;;;11.70;6.43;;;11.40;96.30;;;;;;5048368;28;20476;-77
2021/12/14 12:25:48;;;;;;;11.45;5.13;;;11.40;96.30;;;;;;5043620;28;20388;-77
2021/12/14 12:28:24;;;;;;;9.27;4.75;;;11.50;96.30;;;;;;5038265;28;20037;-79
2021/12/14 12:30:49;;;;;;;6.88;4.20;;;11.50;96.30;;;;;;5043851;28;20033;-80
2021/12/14 12:33:21;;;;;;;11.27;6.25;;;11.50;96.30;;;;;;5043792;28;20041;-80
2021/12/14 12:36:11;;;;;;;11.48;4.18;;;11.50;96.30;;;;;;5047687;28;20115;-80
2021/12/14 12:38:57;;;;;;;13.05;4.97;;;11.50;96.30;;;;;;5035177;28;20385;-81
2021/12/14 12:41:30;;;;;;;7.35;4.07;;;11.60;96.30;;;;;;5034659;28;20116;-81
2021/12/14 12:44:10;;;;;;;5.15;3.53;;;11.50;96.20;;;;;;5048383;28;20037;-82
2021/12/14 12:46:52;;;;;;;8.18;4.15;;;11.50;96.20;;;;;;5045412;28;20059;-80
2021/12/14 12:49:27;;;;;;;9.52;5.70;;;11.60;96.20;;;;;;5034968;28;20037;-77
2021/12/14 12:52:06;;;;;;;6.55;3.78;;;11.60;96.20;;;;;;5046423;28;20049;-77
2021/12/14 12:54:46;;;;;;;10.38;5.68;;;11.60;96.20;;;;;;5035174;28;20052;-78
2021/12/14 12:57:35;;;;;;;7.15;4.13;;;11.70;96.20;;;;;;5047017;28;20558;-82
2021/12/14 13:00:29;;;;;;;8.48;4.45;;;11.60;96.20;;;;;;5042487;28;20106;-83
2021/12/14 13:03:13;;;;;;;7.38;4.00;;;11.70;96.20;;;;;;5053744;28;20037;-83
2021/12/14 13:06:05;;;;;;;8.55;4.55;;;11.70;96.20;;;;;;5034225;28;20037;-82
2021/12/14 13:08:33;;;;;;;7.22;3.03;;;11.70;96.20;;;;;;5036692;28;20552;-83
2021/12/14 13:11:01;;;;;;;6.22;3.60;;;11.70;96.40;;;;;;5046672;28;20059;-82
2021/12/14 13:13:41;;;;;;;5.70;3.35;;;11.70;96.20;;;;;;5054083;28;20079;-83
2021/12/14 13:16:21;;;;;;;9.25;4.65;;;11.70;96.10;;;;;;5051523;28;20112;-77
2021/12/14 13:18:58;;;;;;;1.83;1.55;;;11.70;96.10;;;;;;5033801;28;20034;-80
2021/12/14 13:21:23;;;;;;;7.00;3.70;;;11.70;96.10;;;;;;5033592;28;20116;-81
2021/12/14 13:24:06;;;;;;;7.35;4.40;;;11.80;96.10;;;;;;5032929;28;20507;-81
2021/12/14 13:26:32;;;;;;;10.82;4.35;;;11.80;96.10;;;;;;5034744;28;20029;-85
2021/12/14 13:29:06;;;;;;;2.90;1.83;;;11.80;96.10;;;;;;5048772;28;20483;-81
2021/12/14 13:31:38;;;;;;;5.10;2.75;;;11.70;96.10;;;;;;5040392;28;20033;-88
2021/12/14 13:34:14;;;;;;;6.88;3.88;;;11.80;96.10;;;;;;5039133;28;20053;-89
2021/12/14 13:36:42;;;;;;;2.63;2.05;;;11.80;96.10;;;;;;5040465;28;20025;-87
2021/12/14 13:39:12;;;;;;;7.70;2.38;;;11.80;96.10;;;;;;5045093;28;20062;-86
2021/12/14 13:42:00;;;;;;;3.08;2.13;;;11.80;96.00;;;;;;5040247;28;20037;-86
2021/12/14 13:44:32;;;;;;;6.50;3.47;;;11.80;96.00;;;;;;5039935;28;20471;-86
2021/12/14 13:47:01;;;;;;;6.63;3.80;;;11.80;96.00;;;;;;5036980;28;20377;-81
2021/12/14 13:49:27;;;;;;;3.38;2.08;;;11.90;96.00;;;;;;5041662;28;20370;-82
2021/12/14 13:51:55;;;;;;;8.30;4.70;;;11.90;95.90;;;;;;5040631;28;20095;-83